sensor_id;sensor_type;location;lat;lon;timestamp;pressure;altitude;pressure_sealevel;temperature;humidity
73981;BME280;62348;51.412;5.436;2022-10-13T00:01:37;101823.97;;;9.69;87.14
73981;BME280;62348;51.412;5.436;2022-10-13T00:04:02;101817.50;;;9.70;87.28
73981;BME280;62348;51.412;5.436;2022-10-13T00:06:28;101809.19;;;9.72;87.34
73981;BME280;62348;51.412;5.436;2022-10-13T00:08:53;101816.94;;;9.68;87.98
73981;BME280;62348;51.412;5.436;2022-10-13T00:11:23;101819.63;;;9.68;87.57
73981;BME280;62348;51.412;5.436;2022-10-13T00:13:50;101812.56;;;9.67;88.05
73981;BME280;62348;51.412;5.436;2022-10-13T00:16:17;101806.72;;;9.70;88.28
73981;BME280;62348;51.412;5.436;2022-10-13T00:18:43;101802.72;;;9.73;88.25
73981;BME280;62348;51.412;5.436;2022-10-13T00:21:14;101797.56;;;9.71;88.51
73981;BME280;62348;51.412;5.436;2022-10-13T00:23:40;101797.91;;;9.75;87.89
73981;BME280;62348;51.412;5.436;2022-10-13T00:26:08;101788.41;;;9.72;88.62
73981;BME280;62348;51.412;5.436;2022-10-13T00:28:34;101790.28;;;9.72;88.13
73981;BME280;62348;51.412;5.436;2022-10-13T00:31:00;101791.09;;;9.72;87.99
73981;BME280;62348;51.412;5.436;2022-10-13T00:33:26;101785.69;;;9.72;88.19
73981;BME280;62348;51.412;5.436;2022-10-13T00:35:51;101787.34;;;9.73;88.27
73981;BME280;62348;51.412;5.436;2022-10-13T00:38:18;101790.06;;;9.73;88.41
73981;BME280;62348;51.412;5.436;2022-10-13T00:43:15;101778.19;;;9.74;88.50
73981;BME280;62348;51.412;5.436;2022-10-13T00:45:41;101781.97;;;9.73;88.65
73981;BME280;62348;51.412;5.436;2022-10-13T00:48:07;101779.47;;;9.72;88.55
73981;BME280;62348;51.412;5.436;2022-10-13T00:50:37;101783.81;;;9.73;88.78
73981;BME280;62348;51.412;5.436;2022-10-13T00:53:04;101784.88;;;9.72;88.83
73981;BME280;62348;51.412;5.436;2022-10-13T00:55:33;101786.28;;;9.74;88.79
73981;BME280;62348;51.412;5.436;2022-10-13T00:58:02;101775.13;;;9.71;89.27
73981;BME280;62348;51.412;5.436;2022-10-13T01:00:30;101780.28;;;9.72;89.54
73981;BME280;62348;51.412;5.436;2022-10-13T01:02:56;101779.84;;;9.75;89.25
73981;BME280;62348;51.412;5.436;2022-10-13T01:05:21;101778.78;;;9.76;89.13
73981;BME280;62348;51.412;5.436;2022-10-13T01:07:48;101784.19;;;9.76;89.13
73981;BME280;62348;51.412;5.436;2022-10-13T01:13:34;101777.50;;;9.79;89.14
73981;BME280;62348;51.412;5.436;2022-10-13T01:19:12;101774.53;;;9.81;89.28
73981;BME280;62348;51.412;5.436;2022-10-13T01:24:45;101776.78;;;9.84;89.05
73981;BME280;62348;51.412;5.436;2022-10-13T01:27:23;101782.19;;;9.84;89.72
73981;BME280;62348;51.412;5.436;2022-10-13T01:35:36;101777.38;;;9.86;89.50
73981;BME280;62348;51.412;5.436;2022-10-13T01:40:31;101773.16;;;9.90;89.27
73981;BME280;62348;51.412;5.436;2022-10-13T01:43:19;101772.69;;;9.93;89.40
73981;BME280;62348;51.412;5.436;2022-10-13T01:45:50;101770.59;;;9.95;89.56
73981;BME280;62348;51.412;5.436;2022-10-13T01:48:18;101763.53;;;9.94;89.69
73981;BME280;62348;51.412;5.436;2022-10-13T01:50:44;101775.53;;;9.98;89.69
73981;BME280;62348;51.412;5.436;2022-10-13T01:53:12;101768.47;;;9.97;89.49
73981;BME280;62348;51.412;5.436;2022-10-13T01:55:51;101764.47;;;10.00;89.34
73981;BME280;62348;51.412;5.436;2022-10-13T01:58:16;101753.66;;;10.00;89.43
73981;BME280;62348;51.412;5.436;2022-10-13T02:01:31;101751.56;;;10.02;89.29
73981;BME280;62348;51.412;5.436;2022-10-13T02:04:13;101748.16;;;10.06;88.92
73981;BME280;62348;51.412;5.436;2022-10-13T02:06:47;101750.84;;;10.06;89.22
73981;BME280;62348;51.412;5.436;2022-10-13T02:12:08;101734.63;;;10.06;89.12
73981;BME280;62348;51.412;5.436;2022-10-13T02:14:37;101735.44;;;10.07;88.99
73981;BME280;62348;51.412;5.436;2022-10-13T02:17:04;101738.16;;;10.07;89.23
73981;BME280;62348;51.412;5.436;2022-10-13T02:19:33;101736.53;;;10.06;89.13
73981;BME280;62348;51.412;5.436;2022-10-13T02:22:00;101734.41;;;10.08;89.04
73981;BME280;62348;51.412;5.436;2022-10-13T02:24:27;101725.72;;;10.06;89.27
73981;BME280;62348;51.412;5.436;2022-10-13T02:26:52;101720.09;;;10.07;89.20
73981;BME280;62348;51.412;5.436;2022-10-13T02:29:18;101722.53;;;10.09;89.39
73981;BME280;62348;51.412;5.436;2022-10-13T02:31:44;101719.81;;;10.09;89.19
73981;BME280;62348;51.412;5.436;2022-10-13T02:34:10;101721.47;;;10.10;89.36
73981;BME280;62348;51.412;5.436;2022-10-13T02:36:36;101723.97;;;10.11;89.01
73981;BME280;62348;51.412;5.436;2022-10-13T02:39:05;101726.66;;;10.11;89.13
73981;BME280;62348;51.412;5.436;2022-10-13T02:41:31;101720.19;;;10.12;89.17
73981;BME280;62348;51.412;5.436;2022-10-13T02:43:57;101715.59;;;10.13;89.07
73981;BME280;62348;51.412;5.436;2022-10-13T02:46:22;101723.69;;;10.13;89.12
73981;BME280;62348;51.412;5.436;2022-10-13T02:48:48;101715.94;;;10.16;88.99
73981;BME280;62348;51.412;5.436;2022-10-13T02:51:13;101714.31;;;10.15;88.98
73981;BME280;62348;51.412;5.436;2022-10-13T02:53:39;101703.50;;;10.15;89.08
73981;BME280;62348;51.412;5.436;2022-10-13T02:56:04;101706.78;;;10.18;88.88
73981;BME280;62348;51.412;5.436;2022-10-13T02:58:30;101705.13;;;10.16;88.93
73981;BME280;62348;51.412;5.436;2022-10-13T03:01:11;101704.66;;;10.20;89.10
73981;BME280;62348;51.412;5.436;2022-10-13T03:03:37;101699.25;;;10.20;89.10
73981;BME280;62348;51.412;5.436;2022-10-13T03:06:02;101700.91;;;10.21;88.87
73981;BME280;62348;51.412;5.436;2022-10-13T03:08:30;101703.63;;;10.21;89.24
73981;BME280;62348;51.412;5.436;2022-10-13T03:10:55;101706.91;;;10.23;88.81
73981;BME280;62348;51.412;5.436;2022-10-13T03:13:22;101705.03;;;10.23;88.79
73981;BME280;62348;51.412;5.436;2022-10-13T03:15:47;101703.13;;;10.24;88.87
73981;BME280;62348;51.412;5.436;2022-10-13T03:18:13;101707.50;;;10.25;89.08
73981;BME280;62348;51.412;5.436;2022-10-13T03:20:38;101703.94;;;10.24;88.90
73981;BME280;62348;51.412;5.436;2022-10-13T03:23:04;101702.09;;;10.25;89.00
73981;BME280;62348;51.412;5.436;2022-10-13T03:25:31;101700.19;;;10.25;88.91
73981;BME280;62348;51.412;5.436;2022-10-13T03:27:57;101696.44;;;10.26;88.94
73981;BME280;62348;51.412;5.436;2022-10-13T03:30:22;101696.69;;;10.25;89.21
73981;BME280;62348;51.412;5.436;2022-10-13T03:32:48;101688.81;;;10.23;88.93
73981;BME280;62348;51.412;5.436;2022-10-13T03:35:13;101685.88;;;10.25;88.71
73981;BME280;62348;51.412;5.436;2022-10-13T03:37:39;101686.22;;;10.28;88.73
73981;BME280;62348;51.412;5.436;2022-10-13T03:40:04;101689.72;;;10.29;88.75
73981;BME280;62348;51.412;5.436;2022-10-13T03:42:31;101678.09;;;10.28;88.73
73981;BME280;62348;51.412;5.436;2022-10-13T03:44:56;101686.22;;;10.28;88.99
73981;BME280;62348;51.412;5.436;2022-10-13T03:47:22;101679.72;;;10.29;88.75
73981;BME280;62348;51.412;5.436;2022-10-13T03:49:47;101678.91;;;10.29;88.78
73981;BME280;62348;51.412;5.436;2022-10-13T03:52:12;101683.75;;;10.27;88.89
73981;BME280;62348;51.412;5.436;2022-10-13T03:54:38;101679.63;;;10.24;89.09
73981;BME280;62348;51.412;5.436;2022-10-13T03:57:03;101667.53;;;10.27;88.93
73981;BME280;62348;51.412;5.436;2022-10-13T03:59:29;101672.69;;;10.28;88.69
73981;BME280;62348;51.412;5.436;2022-10-13T04:01:54;101667.53;;;10.27;88.76
73981;BME280;62348;51.412;5.436;2022-10-13T04:04:20;101672.13;;;10.26;88.66
73981;BME280;62348;51.412;5.436;2022-10-13T04:06:45;101665.88;;;10.26;88.57
73981;BME280;62348;51.412;5.436;2022-10-13T04:09:11;101663.41;;;10.24;88.56
73981;BME280;62348;51.412;5.436;2022-10-13T04:11:36;101662.59;;;10.24;88.62
73981;BME280;62348;51.412;5.436;2022-10-13T04:14:02;101657.19;;;10.24;88.75
73981;BME280;62348;51.412;5.436;2022-10-13T04:16:29;101664.25;;;10.25;88.69
73981;BME280;62348;51.412;5.436;2022-10-13T04:18:57;101660.69;;;10.24;88.56
73981;BME280;62348;51.412;5.436;2022-10-13T04:21:23;101659.88;;;10.24;88.76
73981;BME280;62348;51.412;5.436;2022-10-13T04:23:49;101659.88;;;10.24;88.65
73981;BME280;62348;51.412;5.436;2022-10-13T04:26:20;101662.59;;;10.24;88.57
73981;BME280;62348;51.412;5.436;2022-10-13T04:28:49;101658.00;;;10.24;88.85
73981;BME280;62348;51.412;5.436;2022-10-13T04:31:15;101656.72;;;10.27;88.68
73981;BME280;62348;51.412;5.436;2022-10-13T04:33:40;101646.13;;;10.25;88.61
73981;BME280;62348;51.412;5.436;2022-10-13T04:36:08;101640.72;;;10.25;88.77
73981;BME280;62348;51.412;5.436;2022-10-13T04:38:35;101635.91;;;10.27;88.60
73981;BME280;62348;51.412;5.436;2022-10-13T04:41:02;101629.44;;;10.28;88.43
73981;BME280;62348;51.412;5.436;2022-10-13T04:43:28;101624.88;;;10.29;88.65
73981;BME280;62348;51.412;5.436;2022-10-13T04:45:59;101622.16;;;10.29;88.72
73981;BME280;62348;51.412;5.436;2022-10-13T04:48:24;101623.78;;;10.30;88.43
73981;BME280;62348;51.412;5.436;2022-10-13T04:51:01;101635.22;;;10.32;88.74
73981;BME280;62348;51.412;5.436;2022-10-13T04:53:27;101637.09;;;10.31;88.61
73981;BME280;62348;51.412;5.436;2022-10-13T04:55:54;101627.38;;;10.30;88.59
73981;BME280;62348;51.412;5.436;2022-10-13T04:58:20;101621.69;;;10.32;88.73
73981;BME280;62348;51.412;5.436;2022-10-13T05:00:45;101617.72;;;10.34;88.37
73981;BME280;62348;51.412;5.436;2022-10-13T05:03:11;101620.66;;;10.33;88.48
73981;BME280;62348;51.412;5.436;2022-10-13T05:05:37;101617.13;;;10.32;88.78
73981;BME280;62348;51.412;5.436;2022-10-13T05:08:03;101624.41;;;10.32;88.75
73981;BME280;62348;51.412;5.436;2022-10-13T05:10:28;101623.34;;;10.33;88.42
73981;BME280;62348;51.412;5.436;2022-10-13T05:12:53;101642.03;;;10.34;88.59
73981;BME280;62348;51.412;5.436;2022-10-13T05:15:19;101629.34;;;10.35;88.62
73981;BME280;62348;51.412;5.436;2022-10-13T05:17:44;101618.53;;;10.35;88.57
73981;BME280;62348;51.412;5.436;2022-10-13T05:20:10;101626.41;;;10.37;88.51
73981;BME280;62348;51.412;5.436;2022-10-13T05:22:35;101624.50;;;10.37;88.46
73981;BME280;62348;51.412;5.436;2022-10-13T05:25:01;101628.88;;;10.38;88.70
73981;BME280;62348;51.412;5.436;2022-10-13T05:27:26;101628.03;;;10.38;88.56
73981;BME280;62348;51.412;5.436;2022-10-13T05:29:52;101624.28;;;10.39;88.58
73981;BME280;62348;51.412;5.436;2022-10-13T05:32:17;101625.09;;;10.39;88.66
73981;BME280;62348;51.412;5.436;2022-10-13T05:34:42;101628.03;;;10.38;88.72
73981;BME280;62348;51.412;5.436;2022-10-13T05:37:08;101641.31;;;10.39;88.63
73981;BME280;62348;51.412;5.436;2022-10-13T05:39:33;101642.97;;;10.40;88.62
73981;BME280;62348;51.412;5.436;2022-10-13T05:41:58;101642.72;;;10.42;88.55
73981;BME280;62348;51.412;5.436;2022-10-13T05:44:24;101641.88;;;10.41;88.55
73981;BME280;62348;51.412;5.436;2022-10-13T05:46:50;101634.63;;;10.42;88.46
73981;BME280;62348;51.412;5.436;2022-10-13T05:49:15;101639.19;;;10.41;88.93
73981;BME280;62348;51.412;5.436;2022-10-13T05:51:52;101631.41;;;10.45;88.29
73981;BME280;62348;51.412;5.436;2022-10-13T05:54:24;101625.78;;;10.46;88.44
73981;BME280;62348;51.412;5.436;2022-10-13T05:56:54;101633.88;;;10.46;88.37
73981;BME280;62348;51.412;5.436;2022-10-13T05:59:21;101629.56;;;10.45;88.72
73981;BME280;62348;51.412;5.436;2022-10-13T06:01:48;101628.47;;;10.46;88.36
73981;BME280;62348;51.412;5.436;2022-10-13T06:04:21;101632.25;;;10.45;88.68
73981;BME280;62348;51.412;5.436;2022-10-13T06:06:47;101619.56;;;10.46;88.48
73981;BME280;62348;51.412;5.436;2022-10-13T06:09:13;101614.97;;;10.46;88.64
73981;BME280;62348;51.412;5.436;2022-10-13T06:11:39;101618.47;;;10.47;88.61
73981;BME280;62348;51.412;5.436;2022-10-13T06:14:05;101620.38;;;10.46;88.61
73981;BME280;62348;51.412;5.436;2022-10-13T06:16:30;101607.91;;;10.45;88.79
73981;BME280;62348;51.412;5.436;2022-10-13T06:18:56;101606.03;;;10.46;88.44
73981;BME280;62348;51.412;5.436;2022-10-13T06:21:21;101616.84;;;10.46;88.53
73981;BME280;62348;51.412;5.436;2022-10-13T06:23:47;101613.06;;;10.47;88.67
73981;BME280;62348;51.412;5.436;2022-10-13T06:26:12;101624.72;;;10.47;88.66
73981;BME280;62348;51.412;5.436;2022-10-13T06:28:37;101606.59;;;10.48;88.60
73981;BME280;62348;51.412;5.436;2022-10-13T06:31:04;101595.56;;;10.49;88.42
73981;BME280;62348;51.412;5.436;2022-10-13T06:33:31;101591.19;;;10.48;88.77
73981;BME280;62348;51.412;5.436;2022-10-13T06:36:00;101600.97;;;10.49;88.64
73981;BME280;62348;51.412;5.436;2022-10-13T06:38:26;101608.84;;;10.51;88.70
73981;BME280;62348;51.412;5.436;2022-10-13T06:40:51;101604.00;;;10.53;88.61
73981;BME280;62348;51.412;5.436;2022-10-13T06:43:17;101604.00;;;10.53;88.76
73981;BME280;62348;51.412;5.436;2022-10-13T06:45:42;101604.59;;;10.55;88.55
73981;BME280;62348;51.412;5.436;2022-10-13T06:48:07;101599.75;;;10.57;88.77
73981;BME280;62348;51.412;5.436;2022-10-13T06:50:33;101595.97;;;10.58;88.60
73981;BME280;62348;51.412;5.436;2022-10-13T06:52:58;101606.56;;;10.60;89.21
73981;BME280;62348;51.412;5.436;2022-10-13T06:55:24;101601.72;;;10.62;89.00
73981;BME280;62348;51.412;5.436;2022-10-13T06:57:49;101598.78;;;10.63;88.74
73981;BME280;62348;51.412;5.436;2022-10-13T07:00:15;101609.13;;;10.66;88.72
73981;BME280;62348;51.412;5.436;2022-10-13T07:02:40;101612.63;;;10.67;88.97
73981;BME280;62348;51.412;5.436;2022-10-13T07:05:06;101618.88;;;10.67;88.64
73981;BME280;62348;51.412;5.436;2022-10-13T07:07:31;101603.44;;;10.68;88.78
73981;BME280;62348;51.412;5.436;2022-10-13T07:09:56;101611.91;;;10.71;88.53
73981;BME280;62348;51.412;5.436;2022-10-13T07:12:22;101609.19;;;10.71;88.54
73981;BME280;62348;51.412;5.436;2022-10-13T07:14:47;101611.66;;;10.73;88.56
73981;BME280;62348;51.412;5.436;2022-10-13T07:17:13;101609.53;;;10.75;88.46
73981;BME280;62348;51.412;5.436;2022-10-13T07:19:38;101606.59;;;10.77;88.22
73981;BME280;62348;51.412;5.436;2022-10-13T07:22:04;101608.47;;;10.76;88.62
73981;BME280;62348;51.412;5.436;2022-10-13T07:24:29;101609.06;;;10.78;88.29
73981;BME280;62348;51.412;5.436;2022-10-13T07:26:55;101618.22;;;10.77;88.60
73981;BME280;62348;51.412;5.436;2022-10-13T07:29:20;101615.03;;;10.80;88.38
73981;BME280;62348;51.412;5.436;2022-10-13T07:31:46;101619.97;;;10.83;88.75
73981;BME280;62348;51.412;5.436;2022-10-13T07:34:13;101609.47;;;10.87;88.18
73981;BME280;62348;51.412;5.436;2022-10-13T07:36:39;101613.06;;;10.92;88.08
73981;BME280;62348;51.412;5.436;2022-10-13T07:39:09;101613.41;;;10.96;88.11
73981;BME280;62348;51.412;5.436;2022-10-13T07:41:35;101619.16;;;11.00;88.05
73981;BME280;62348;51.412;5.436;2022-10-13T07:44:01;101613.03;;;11.04;88.09
73981;BME280;62348;51.412;5.436;2022-10-13T07:46:27;101609.25;;;11.05;88.12
73981;BME280;62348;51.412;5.436;2022-10-13T07:48:52;101618.19;;;11.06;88.45
73981;BME280;62348;51.412;5.436;2022-10-13T07:51:19;101609.56;;;11.09;88.10
73981;BME280;62348;51.412;5.436;2022-10-13T07:53:44;101608.25;;;11.11;87.36
73981;BME280;62348;51.412;5.436;2022-10-13T07:56:12;101611.56;;;11.13;87.72
73981;BME280;62348;51.412;5.436;2022-10-13T07:58:40;101606.72;;;11.16;87.77
73981;BME280;62348;51.412;5.436;2022-10-13T08:01:07;101605.16;;;11.20;87.73
73981;BME280;62348;51.412;5.436;2022-10-13T08:03:33;101612.78;;;11.23;87.76
73981;BME280;62348;51.412;5.436;2022-10-13T08:06:00;101611.47;;;11.25;87.19
73981;BME280;62348;51.412;5.436;2022-10-13T08:08:27;101617.22;;;11.29;87.13
73981;BME280;62348;51.412;5.436;2022-10-13T08:10:53;101605.63;;;11.33;87.50
73981;BME280;62348;51.412;5.436;2022-10-13T08:13:18;101604.06;;;11.38;87.15
73981;BME280;62348;51.412;5.436;2022-10-13T08:15:44;101599.78;;;11.42;87.42
73981;BME280;62348;51.412;5.436;2022-10-13T08:18:12;101604.72;;;11.45;86.92
73981;BME280;62348;51.412;5.436;2022-10-13T08:20:41;101598.25;;;11.46;86.62
73981;BME280;62348;51.412;5.436;2022-10-13T08:23:08;101602.34;;;11.48;86.77
73981;BME280;62348;51.412;5.436;2022-10-13T08:25:41;101601.03;;;11.51;86.72
73981;BME280;62348;51.412;5.436;2022-10-13T08:28:33;101603.00;;;11.56;86.70
73981;BME280;62348;51.412;5.436;2022-10-13T08:30:59;101594.59;;;11.57;86.85
73981;BME280;62348;51.412;5.436;2022-10-13T08:33:25;101587.88;;;11.60;86.18
73981;BME280;62348;51.412;5.436;2022-10-13T08:35:51;101590.41;;;11.66;86.30
73981;BME280;62348;51.412;5.436;2022-10-13T08:38:17;101596.38;;;11.68;86.74
73981;BME280;62348;51.412;5.436;2022-10-13T08:40:47;101587.53;;;11.73;86.19
73981;BME280;62348;51.412;5.436;2022-10-13T08:43:19;101595.72;;;11.78;85.11
73981;BME280;62348;51.412;5.436;2022-10-13T08:45:47;101597.09;;;11.81;85.47
73981;BME280;62348;51.412;5.436;2022-10-13T08:48:26;101601.44;;;11.82;85.55
73981;BME280;62348;51.412;5.436;2022-10-13T08:50:56;101596.03;;;11.82;85.52
73981;BME280;62348;51.412;5.436;2022-10-13T08:53:36;101588.72;;;11.82;86.27
73981;BME280;62348;51.412;5.436;2022-10-13T08:58:35;101593.38;;;11.87;85.69
73981;BME280;62348;51.412;5.436;2022-10-13T09:01:27;101591.25;;;11.89;85.52
73981;BME280;62348;51.412;5.436;2022-10-13T09:06:42;101589.44;;;11.95;85.66
73981;BME280;62348;51.412;5.436;2022-10-13T09:09:10;101584.09;;;12.00;85.22
73981;BME280;62348;51.412;5.436;2022-10-13T09:11:44;101579.81;;;12.04;85.10
73981;BME280;62348;51.412;5.436;2022-10-13T09:14:18;101575.53;;;12.08;84.91
73981;BME280;62348;51.412;5.436;2022-10-13T09:16:44;101574.78;;;12.13;84.15
73981;BME280;62348;51.412;5.436;2022-10-13T09:19:31;101577.81;;;12.16;84.70
73981;BME280;62348;51.412;5.436;2022-10-13T09:24:40;101577.81;;;12.16;84.48
73981;BME280;62348;51.412;5.436;2022-10-13T09:27:11;101576.72;;;12.17;83.88
73981;BME280;62348;51.412;5.436;2022-10-13T09:29:37;101569.69;;;12.16;83.78
73981;BME280;62348;51.412;5.436;2022-10-13T09:32:13;101578.63;;;12.17;84.42
73981;BME280;62348;51.412;5.436;2022-10-13T09:34:39;101572.38;;;12.16;84.02
73981;BME280;62348;51.412;5.436;2022-10-13T09:37:10;101576.16;;;12.15;84.97
73981;BME280;62348;51.412;5.436;2022-10-13T09:39:40;101569.09;;;12.14;84.63
73981;BME280;62348;51.412;5.436;2022-10-13T09:42:25;101568.59;;;12.17;84.78
73981;BME280;62348;51.412;5.436;2022-10-13T09:44:57;101560.97;;;12.14;85.68
73981;BME280;62348;51.412;5.436;2022-10-13T09:47:25;101564.50;;;12.15;84.53
73981;BME280;62348;51.412;5.436;2022-10-13T09:50:16;101559.06;;;12.15;84.77
73981;BME280;62348;51.412;5.436;2022-10-13T09:52:45;101563.41;;;12.16;84.57
73981;BME280;62348;51.412;5.436;2022-10-13T09:55:31;101568.34;;;12.19;84.78
73981;BME280;62348;51.412;5.436;2022-10-13T09:58:19;101560.75;;;12.21;85.01
73981;BME280;62348;51.412;5.436;2022-10-13T10:00:50;101553.69;;;12.20;85.65
73981;BME280;62348;51.412;5.436;2022-10-13T10:03:42;101548.88;;;12.22;85.47
73981;BME280;62348;51.412;5.436;2022-10-13T10:06:11;101553.19;;;12.23;84.94
73981;BME280;62348;51.412;5.436;2022-10-13T10:08:57;101555.97;;;12.28;85.19
73981;BME280;62348;51.412;5.436;2022-10-13T10:11:30;101552.44;;;12.27;85.45
73981;BME280;62348;51.412;5.436;2022-10-13T10:13:59;101552.16;;;12.29;86.12
73981;BME280;62348;51.412;5.436;2022-10-13T10:16:37;101546.25;;;12.32;85.41
73981;BME280;62348;51.412;5.436;2022-10-13T10:19:10;101545.44;;;12.32;85.77
73981;BME280;62348;51.412;5.436;2022-10-13T10:21:50;101546.81;;;12.34;84.90
73981;BME280;62348;51.412;5.436;2022-10-13T10:24:30;101539.47;;;12.35;84.32
73981;BME280;62348;51.412;5.436;2022-10-13T10:27:12;101536.22;;;12.33;85.04
73981;BME280;62348;51.412;5.436;2022-10-13T10:29:51;101536.78;;;12.35;85.43
73981;BME280;62348;51.412;5.436;2022-10-13T10:32:54;101542.75;;;12.37;85.68
73981;BME280;62348;51.412;5.436;2022-10-13T10:43:46;101535.78;;;12.41;85.70
73981;BME280;62348;51.412;5.436;2022-10-13T10:46:17;101542.00;;;12.41;86.33
73981;BME280;62348;51.412;5.436;2022-10-13T10:48:46;101539.28;;;12.41;86.05
73981;BME280;62348;51.412;5.436;2022-10-13T10:51:12;101542.31;;;12.45;85.47
73981;BME280;62348;51.412;5.436;2022-10-13T10:53:55;101534.75;;;12.47;86.13
73981;BME280;62348;51.412;5.436;2022-10-13T10:56:44;101532.09;;;12.52;85.60
73981;BME280;62348;51.412;5.436;2022-10-13T11:04:46;101528.09;;;12.60;83.92
73981;BME280;62348;51.412;5.436;2022-10-13T11:17:17;101519.94;;;12.60;84.82
73981;BME280;62348;51.412;5.436;2022-10-13T11:19:43;101524.53;;;12.59;85.25
73981;BME280;62348;51.412;5.436;2022-10-13T11:22:11;101516.69;;;12.58;85.31
73981;BME280;62348;51.412;5.436;2022-10-13T11:27:17;101508.53;;;12.58;85.84
73981;BME280;62348;51.412;5.436;2022-10-13T11:35:12;101507.13;;;12.55;87.19
73981;BME280;62348;51.412;5.436;2022-10-13T11:56:50;101489.81;;;12.61;87.06
73981;BME280;62348;51.412;5.436;2022-10-13T12:01:43;101489.00;;;12.61;87.23
73981;BME280;62348;51.412;5.436;2022-10-13T12:04:13;101491.72;;;12.61;86.80
73981;BME280;62348;51.412;5.436;2022-10-13T12:06:40;101485.25;;;12.62;87.22
73981;BME280;62348;51.412;5.436;2022-10-13T12:09:19;101497.72;;;12.63;86.98
73981;BME280;62348;51.412;5.436;2022-10-13T12:11:45;101493.88;;;12.59;87.51
73981;BME280;62348;51.412;5.436;2022-10-13T12:14:21;101494.69;;;12.59;87.59
73981;BME280;62348;51.412;5.436;2022-10-13T12:16:52;101497.69;;;12.58;87.33
73981;BME280;62348;51.412;5.436;2022-10-13T12:19:21;101488.19;;;12.60;87.56
73981;BME280;62348;51.412;5.436;2022-10-13T12:21:51;101489.00;;;12.61;88.10
73981;BME280;62348;51.412;5.436;2022-10-13T12:24:17;101486.59;;;12.64;87.94
73981;BME280;62348;51.412;5.436;2022-10-13T12:26:45;101482.00;;;12.65;87.83
73981;BME280;62348;51.412;5.436;2022-10-13T12:29:13;101473.34;;;12.68;88.28
73981;BME280;62348;51.412;5.436;2022-10-13T12:31:43;101482.28;;;12.68;88.15
73981;BME280;62348;51.412;5.436;2022-10-13T12:34:24;101472.84;;;12.71;88.59
73981;BME280;62348;51.412;5.436;2022-10-13T12:37:23;101470.38;;;12.75;88.33
73981;BME280;62348;51.412;5.436;2022-10-13T12:39:50;101463.91;;;12.76;88.69
73981;BME280;62348;51.412;5.436;2022-10-13T12:42:16;101461.75;;;12.78;88.80
73981;BME280;62348;51.412;5.436;2022-10-13T12:44:42;101461.22;;;12.81;88.73
73981;BME280;62348;51.412;5.436;2022-10-13T12:52:49;101464.75;;;12.81;88.44
73981;BME280;62348;51.412;5.436;2022-10-13T12:55:17;101467.72;;;12.80;88.75
73981;BME280;62348;51.412;5.436;2022-10-13T12:57:45;101459.59;;;12.80;88.68
73981;BME280;62348;51.412;5.436;2022-10-13T13:02:51;101464.75;;;12.81;89.21
73981;BME280;62348;51.412;5.436;2022-10-13T13:08:02;101450.09;;;12.82;88.99
73981;BME280;62348;51.412;5.436;2022-10-13T13:10:28;101454.72;;;12.82;89.66
73981;BME280;62348;51.412;5.436;2022-10-13T13:12:54;101456.38;;;12.83;89.62
73981;BME280;62348;51.412;5.436;2022-10-13T13:17:48;101458.22;;;12.82;89.48
73981;BME280;62348;51.412;5.436;2022-10-13T13:20:31;101448.78;;;12.85;89.44
73981;BME280;62348;51.412;5.436;2022-10-13T13:22:58;101450.38;;;12.81;89.86
73981;BME280;62348;51.412;5.436;2022-10-13T13:25:25;101447.38;;;12.82;90.17
73981;BME280;62348;51.412;5.436;2022-10-13T13:27:51;101450.09;;;12.82;90.19
73981;BME280;62348;51.412;5.436;2022-10-13T13:30:19;101452.56;;;12.84;90.36
73981;BME280;62348;51.412;5.436;2022-10-13T13:32:44;101449.59;;;12.85;90.27
73981;BME280;62348;51.412;5.436;2022-10-13T13:35:10;101451.78;;;12.88;90.32
73981;BME280;62348;51.412;5.436;2022-10-13T13:37:39;101442.00;;;12.87;90.25
73981;BME280;62348;51.412;5.436;2022-10-13T13:40:07;101446.34;;;12.88;90.25
73981;BME280;62348;51.412;5.436;2022-10-13T13:42:38;101442.28;;;12.91;90.32
73981;BME280;62348;51.412;5.436;2022-10-13T13:45:03;101445.00;;;12.91;90.32
73981;BME280;62348;51.412;5.436;2022-10-13T13:47:30;101436.88;;;12.91;90.51
73981;BME280;62348;51.412;5.436;2022-10-13T13:49:55;101443.09;;;12.92;90.45
73981;BME280;62348;51.412;5.436;2022-10-13T13:52:22;101440.94;;;12.94;90.71
73981;BME280;62348;51.412;5.436;2022-10-13T13:54:48;101440.13;;;12.93;90.58
73981;BME280;62348;51.412;5.436;2022-10-13T13:57:18;101437.16;;;12.95;90.63
73981;BME280;62348;51.412;5.436;2022-10-13T13:59:44;101436.91;;;12.96;90.87
73981;BME280;62348;51.412;5.436;2022-10-13T14:02:16;101437.47;;;12.98;90.79
73981;BME280;62348;51.412;5.436;2022-10-13T14:04:42;101442.09;;;13.03;90.80
73981;BME280;62348;51.412;5.436;2022-10-13T14:07:07;101440.22;;;13.03;90.46
73981;BME280;62348;51.412;5.436;2022-10-13T14:09:33;101438.84;;;13.06;90.23
73981;BME280;62348;51.412;5.436;2022-10-13T14:11:58;101433.69;;;13.04;90.19
73981;BME280;62348;51.412;5.436;2022-10-13T14:14:24;101437.22;;;13.05;90.11
73981;BME280;62348;51.412;5.436;2022-10-13T14:16:49;101428.25;;;13.04;89.88
73981;BME280;62348;51.412;5.436;2022-10-13T14:19:15;101432.06;;;13.03;89.57
73981;BME280;62348;51.412;5.436;2022-10-13T14:21:40;101424.19;;;13.02;89.80
73981;BME280;62348;51.412;5.436;2022-10-13T14:24:06;101428.50;;;13.03;89.81
73981;BME280;62348;51.412;5.436;2022-10-13T14:26:31;101429.34;;;13.03;89.55
73981;BME280;62348;51.412;5.436;2022-10-13T14:28:57;101432.88;;;13.04;89.94
73981;BME280;62348;51.412;5.436;2022-10-13T14:31:22;101425.53;;;13.04;89.82
73981;BME280;62348;51.412;5.436;2022-10-13T14:33:48;101419.84;;;13.06;89.95
73981;BME280;62348;51.412;5.436;2022-10-13T14:36:13;101431.00;;;13.09;89.94